sensor_id;sensor_type;location;lat;lon;timestamp;pressure;altitude;pressure_sealevel;temperature;humidity
37304;BME280;23188;51.188;16.374;2023-02-17T00:02:36;100723.20;;;6.09;85.19
37304;BME280;23188;51.188;16.374;2023-02-17T00:06:39;100720.98;;;6.10;85.21
37304;BME280;23188;51.188;16.374;2023-02-17T00:10:40;100724.61;;;6.14;85.37
37304;BME280;23188;51.188;16.374;2023-02-17T00:14:43;100723.45;;;6.17;85.63
37304;BME280;23188;51.188;16.374;2023-02-17T00:18:45;100719.14;;;6.21;85.46
37304;BME280;23188;51.188;16.374;2023-02-17T00:22:47;100718.73;;;6.25;85.89
37304;BME280;23188;51.188;16.374;2023-02-17T00:26:50;100710.64;;;6.28;85.83
37304;BME280;23188;51.188;16.374;2023-02-17T00:30:52;100705.90;;;6.31;85.74
37304;BME280;23188;51.188;16.374;2023-02-17T00:34:54;100703.17;;;6.36;85.82
37304;BME280;23188;51.188;16.374;2023-02-17T00:38:57;100698.36;;;6.40;86.23
37304;BME280;23188;51.188;16.374;2023-02-17T00:42:59;100700.65;;;6.40;86.75
37304;BME280;23188;51.188;16.374;2023-02-17T00:47:01;100694.91;;;6.39;87.24
37304;BME280;23188;51.188;16.374;2023-02-17T00:51:03;100689.63;;;6.41;87.14
37304;BME280;23188;51.188;16.374;2023-02-17T00:55:05;100692.42;;;6.48;86.97
37304;BME280;23188;51.188;16.374;2023-02-17T00:59:07;100689.66;;;6.57;87.02
37304;BME280;23188;51.188;16.374;2023-02-17T01:03:10;100682.23;;;6.66;87.20
37304;BME280;23188;51.188;16.374;2023-02-17T01:07:13;100680.36;;;6.71;87.37
37304;BME280;23188;51.188;16.374;2023-02-17T01:11:25;100674.90;;;6.74;87.13
37304;BME280;23188;51.188;16.374;2023-02-17T01:15:29;100673.39;;;6.76;86.65
37304;BME280;23188;51.188;16.374;2023-02-17T01:19:32;100666.98;;;6.80;86.27
37304;BME280;23188;51.188;16.374;2023-02-17T01:23:34;100660.08;;;6.83;86.12
37304;BME280;23188;51.188;16.374;2023-02-17T01:27:35;100660.80;;;6.92;85.77
37304;BME280;23188;51.188;16.374;2023-02-17T01:31:38;100662.18;;;7.04;85.88
37304;BME280;23188;51.188;16.374;2023-02-17T01:35:41;100661.35;;;7.09;85.43
37304;BME280;23188;51.188;16.374;2023-02-17T01:39:42;100658.90;;;7.14;85.32
37304;BME280;23188;51.188;16.374;2023-02-17T01:44:08;100654.16;;;7.19;85.53
37304;BME280;23188;51.188;16.374;2023-02-17T01:48:13;100646.71;;;7.29;86.04
37304;BME280;23188;51.188;16.374;2023-02-17T01:52:21;100639.55;;;7.36;86.45
37304;BME280;23188;51.188;16.374;2023-02-17T01:56:25;100626.25;;;7.38;86.54
37304;BME280;23188;51.188;16.374;2023-02-17T02:00:28;100621.70;;;7.34;86.40
37304;BME280;23188;51.188;16.374;2023-02-17T02:04:35;100613.61;;;7.28;86.68
37304;BME280;23188;51.188;16.374;2023-02-17T02:09:38;100610.86;;;7.26;86.88
37304;BME280;23188;51.188;16.374;2023-02-17T02:13:32;100599.31;;;7.20;87.48
37304;BME280;23188;51.188;16.374;2023-02-17T02:17:44;100588.81;;;7.21;88.30
37304;BME280;23188;51.188;16.374;2023-02-17T02:30:43;100581.11;;;7.37;88.08
37304;BME280;23188;51.188;16.374;2023-02-17T02:34:56;100575.30;;;7.46;87.86
37304;BME280;23188;51.188;16.374;2023-02-17T02:39:10;100564.25;;;7.50;87.87
37304;BME280;23188;51.188;16.374;2023-02-17T02:43:15;100557.09;;;7.54;87.65
37304;BME280;23188;51.188;16.374;2023-02-17T02:47:46;100550.95;;;7.56;87.53
37304;BME280;23188;51.188;16.374;2023-02-17T02:56:29;100539.65;;;7.48;87.18
37304;BME280;23188;51.188;16.374;2023-02-17T03:09:26;100541.06;;;7.37;87.44
37304;BME280;23188;51.188;16.374;2023-02-17T03:13:28;100538.11;;;7.36;87.58
37304;BME280;23188;51.188;16.374;2023-02-17T03:17:31;100543.63;;;7.36;87.64
37304;BME280;23188;51.188;16.374;2023-02-17T03:21:39;100541.84;;;7.31;88.30
37304;BME280;23188;51.188;16.374;2023-02-17T03:25:42;100539.08;;;7.21;89.79
37304;BME280;23188;51.188;16.374;2023-02-17T03:29:45;100543.37;;;7.20;90.38
37304;BME280;23188;51.188;16.374;2023-02-17T03:33:48;100535.48;;;7.17;90.88
37304;BME280;23188;51.188;16.374;2023-02-17T03:37:49;100532.75;;;7.12;91.68
37304;BME280;23188;51.188;16.374;2023-02-17T03:41:51;100529.41;;;7.15;91.78
37304;BME280;23188;51.188;16.374;2023-02-17T03:45:54;100524.30;;;7.18;91.68
37304;BME280;23188;51.188;16.374;2023-02-17T03:49:56;100521.36;;;7.20;92.10
37304;BME280;23188;51.188;16.374;2023-02-17T03:53:57;100522.16;;;7.26;92.42
37304;BME280;23188;51.188;16.374;2023-02-17T03:57:59;100516.77;;;7.39;92.26
37304;BME280;23188;51.188;16.374;2023-02-17T04:02:02;100517.61;;;7.56;91.68
37304;BME280;23188;51.188;16.374;2023-02-17T04:06:05;100516.27;;;7.71;91.30
37304;BME280;23188;51.188;16.374;2023-02-17T04:10:08;100513.98;;;7.82;90.95
37304;BME280;23188;51.188;16.374;2023-02-17T04:14:10;100512.31;;;7.97;90.52
37304;BME280;23188;51.188;16.374;2023-02-17T04:18:12;100503.98;;;8.08;90.27
37304;BME280;23188;51.188;16.374;2023-02-17T04:22:15;100490.81;;;8.22;89.54
37304;BME280;23188;51.188;16.374;2023-02-17T04:26:17;100483.64;;;8.34;88.48
37304;BME280;23188;51.188;16.374;2023-02-17T04:30:19;100482.09;;;8.41;87.76
37304;BME280;23188;51.188;16.374;2023-02-17T04:34:20;100475.14;;;8.41;87.40
37304;BME280;23188;51.188;16.374;2023-02-17T04:38:22;100480.38;;;8.40;87.24
37304;BME280;23188;51.188;16.374;2023-02-17T04:42:24;100475.33;;;8.37;86.91
37304;BME280;23188;51.188;16.374;2023-02-17T04:46:27;100465.13;;;8.28;86.74
37304;BME280;23188;51.188;16.374;2023-02-17T04:50:31;100464.13;;;8.22;86.65
37304;BME280;23188;51.188;16.374;2023-02-17T04:54:33;100468.11;;;8.18;86.77
37304;BME280;23188;51.188;16.374;2023-02-17T04:58:35;100468.66;;;8.15;86.88
37304;BME280;23188;51.188;16.374;2023-02-17T05:02:36;100462.41;;;8.13;86.60
37304;BME280;23188;51.188;16.374;2023-02-17T05:06:39;100454.48;;;8.13;86.08
37304;BME280;23188;51.188;16.374;2023-02-17T05:10:42;100446.16;;;8.11;85.94
37304;BME280;23188;51.188;16.374;2023-02-17T05:14:45;100440.95;;;8.12;85.73
37304;BME280;23188;51.188;16.374;2023-02-17T05:18:47;100444.16;;;8.14;85.75
37304;BME280;23188;51.188;16.374;2023-02-17T05:22:49;100445.56;;;8.12;85.53
37304;BME280;23188;51.188;16.374;2023-02-17T05:26:51;100451.66;;;8.13;85.75
37304;BME280;23188;51.188;16.374;2023-02-17T05:30:52;100449.51;;;8.14;87.55
37304;BME280;23188;51.188;16.374;2023-02-17T05:34:54;100446.29;;;8.12;89.18
37304;BME280;23188;51.188;16.374;2023-02-17T05:38:56;100433.95;;;8.06;90.34
37304;BME280;23188;51.188;16.374;2023-02-17T05:42:58;100430.45;;;8.01;91.70
37304;BME280;23188;51.188;16.374;2023-02-17T05:47:02;100429.09;;;7.97;92.43
37304;BME280;23188;51.188;16.374;2023-02-17T05:51:04;100427.50;;;7.89;93.60
37304;BME280;23188;51.188;16.374;2023-02-17T05:55:06;100419.05;;;7.78;94.24
37304;BME280;23188;51.188;16.374;2023-02-17T05:59:08;100421.45;;;7.74;94.58
37304;BME280;23188;51.188;16.374;2023-02-17T06:03:10;100426.39;;;7.77;94.54
37304;BME280;23188;51.188;16.374;2023-02-17T06:07:12;100431.90;;;7.82;94.85
37304;BME280;23188;51.188;16.374;2023-02-17T06:11:14;100427.22;;;7.86;95.15
37304;BME280;23188;51.188;16.374;2023-02-17T06:15:16;100423.29;;;7.89;95.55
37304;BME280;23188;51.188;16.374;2023-02-17T06:19:18;100418.57;;;7.91;95.58
37304;BME280;23188;51.188;16.374;2023-02-17T06:23:19;100422.98;;;7.93;95.08
37304;BME280;23188;51.188;16.374;2023-02-17T06:27:21;100425.17;;;8.00;94.96
37304;BME280;23188;51.188;16.374;2023-02-17T06:31:23;100420.73;;;7.95;95.48
37304;BME280;23188;51.188;16.374;2023-02-17T06:35:25;100420.48;;;7.96;95.24
37304;BME280;23188;51.188;16.374;2023-02-17T06:39:28;100421.43;;;7.98;95.21
37304;BME280;23188;51.188;16.374;2023-02-17T06:43:29;100417.36;;;7.95;94.95
37304;BME280;23188;51.188;16.374;2023-02-17T06:47:32;100413.60;;;7.94;94.39
37304;BME280;23188;51.188;16.374;2023-02-17T06:51:34;100412.79;;;7.93;94.61
37304;BME280;23188;51.188;16.374;2023-02-17T06:55:36;100412.98;;;7.90;95.04
37304;BME280;23188;51.188;16.374;2023-02-17T06:59:43;100414.60;;;7.95;95.23
37304;BME280;23188;51.188;16.374;2023-02-17T07:03:45;100413.11;;;7.96;95.76
37304;BME280;23188;51.188;16.374;2023-02-17T07:07:47;100412.20;;;7.94;96.70
37304;BME280;23188;51.188;16.374;2023-02-17T07:11:49;100412.88;;;7.94;96.91
37304;BME280;23188;51.188;16.374;2023-02-17T07:15:51;100404.75;;;7.92;96.79
37304;BME280;23188;51.188;16.374;2023-02-17T07:19:53;100408.64;;;7.96;96.41
37304;BME280;23188;51.188;16.374;2023-02-17T07:23:55;100407.25;;;8.02;96.18
37304;BME280;23188;51.188;16.374;2023-02-17T07:27:58;100409.93;;;8.06;96.07
37304;BME280;23188;51.188;16.374;2023-02-17T07:32:01;100408.52;;;8.11;96.02
37304;BME280;23188;51.188;16.374;2023-02-17T07:36:07;100404.23;;;8.17;96.11
37304;BME280;23188;51.188;16.374;2023-02-17T07:40:10;100398.71;;;8.20;96.55
37304;BME280;23188;51.188;16.374;2023-02-17T07:44:12;100396.08;;;8.28;96.68
37304;BME280;23188;51.188;16.374;2023-02-17T07:48:15;100400.98;;;8.33;97.30
37304;BME280;23188;51.188;16.374;2023-02-17T07:52:17;100400.63;;;8.41;98.06
37304;BME280;23188;51.188;16.374;2023-02-17T07:56:20;100399.94;;;8.46;98.36
37304;BME280;23188;51.188;16.374;2023-02-17T08:00:22;100397.42;;;8.55;97.58
37304;BME280;23188;51.188;16.374;2023-02-17T08:04:28;100400.78;;;8.62;96.95
37304;BME280;23188;51.188;16.374;2023-02-17T08:08:30;100394.52;;;8.70;97.05
37304;BME280;23188;51.188;16.374;2023-02-17T08:12:51;100389.70;;;8.78;98.06
37304;BME280;23188;51.188;16.374;2023-02-17T08:17:11;100390.14;;;8.84;98.87
37304;BME280;23188;51.188;16.374;2023-02-17T08:21:13;100390.38;;;8.98;99.79
37304;BME280;23188;51.188;16.374;2023-02-17T08:25:15;100394.47;;;9.08;100.00
37304;BME280;23188;51.188;16.374;2023-02-17T08:29:17;100382.56;;;9.25;100.00
37304;BME280;23188;51.188;16.374;2023-02-17T08:33:20;100381.44;;;9.55;100.00
37304;BME280;23188;51.188;16.374;2023-02-17T08:37:22;100374.17;;;9.78;100.00
37304;BME280;23188;51.188;16.374;2023-02-17T08:41:29;100363.65;;;9.95;100.00
37304;BME280;23188;51.188;16.374;2023-02-17T08:45:31;100360.96;;;10.09;100.00
37304;BME280;23188;51.188;16.374;2023-02-17T08:49:33;100354.08;;;10.30;100.00
37304;BME280;23188;51.188;16.374;2023-02-17T08:53:36;100350.67;;;10.48;100.00
37304;BME280;23188;51.188;16.374;2023-02-17T08:57:38;100348.20;;;10.59;100.00
37304;BME280;23188;51.188;16.374;2023-02-17T09:01:40;100344.31;;;10.68;100.00
37304;BME280;23188;51.188;16.374;2023-02-17T09:05:42;100345.02;;;10.68;100.00
37304;BME280;23188;51.188;16.374;2023-02-17T09:09:44;100342.48;;;10.71;100.00
37304;BME280;23188;51.188;16.374;2023-02-17T09:13:46;100347.92;;;10.67;100.00
37304;BME280;23188;51.188;16.374;2023-02-17T09:17:48;100355.61;;;10.62;100.00
37304;BME280;23188;51.188;16.374;2023-02-17T09:21:50;100364.58;;;10.58;100.00
37304;BME280;23188;51.188;16.374;2023-02-17T09:26:11;100358.02;;;10.56;100.00
37304;BME280;23188;51.188;16.374;2023-02-17T09:30:13;100353.79;;;10.58;100.00
37304;BME280;23188;51.188;16.374;2023-02-17T09:34:15;100347.38;;;10.63;100.00
37304;BME280;23188;51.188;16.374;2023-02-17T09:38:17;100347.59;;;10.71;100.00
37304;BME280;23188;51.188;16.374;2023-02-17T09:42:21;100346.49;;;10.76;100.00
37304;BME280;23188;51.188;16.374;2023-02-17T09:46:30;100342.21;;;10.83;100.00
37304;BME280;23188;51.188;16.374;2023-02-17T09:50:41;100343.23;;;10.86;100.00
37304;BME280;23188;51.188;16.374;2023-02-17T09:55:03;100342.33;;;10.90;100.00
37304;BME280;23188;51.188;16.374;2023-02-17T09:59:43;100341.52;;;10.91;100.00
37304;BME280;23188;51.188;16.374;2023-02-17T10:03:53;100327.29;;;10.96;100.00
37304;BME280;23188;51.188;16.374;2023-02-17T10:08:01;100317.32;;;11.03;100.00
37304;BME280;23188;51.188;16.374;2023-02-17T10:12:09;100312.45;;;11.08;100.00
37304;BME280;23188;51.188;16.374;2023-02-17T10:16:21;100308.20;;;11.17;99.72
37304;BME280;23188;51.188;16.374;2023-02-17T10:24:31;100311.45;;;11.33;98.71
37304;BME280;23188;51.188;16.374;2023-02-17T10:28:49;100304.90;;;11.35;98.32
37304;BME280;23188;51.188;16.374;2023-02-17T10:37:28;100291.39;;;11.35;99.87
37304;BME280;23188;51.188;16.374;2023-02-17T10:41:34;100291.52;;;11.29;100.00
37304;BME280;23188;51.188;16.374;2023-02-17T10:45:40;100285.02;;;11.31;100.00
37304;BME280;23188;51.188;16.374;2023-02-17T10:49:47;100274.35;;;11.31;100.00
37304;BME280;23188;51.188;16.374;2023-02-17T10:54:06;100261.55;;;11.29;100.00
37304;BME280;23188;51.188;16.374;2023-02-17T10:58:12;100250.20;;;11.23;100.00
37304;BME280;23188;51.188;16.374;2023-02-17T11:06:51;100221.81;;;11.37;100.00
37304;BME280;23188;51.188;16.374;2023-02-17T11:11:04;100220.41;;;11.47;99.12
37304;BME280;23188;51.188;16.374;2023-02-17T11:15:15;100212.10;;;11.57;97.89
37304;BME280;23188;51.188;16.374;2023-02-17T11:23:26;100198.70;;;11.52;97.11
37304;BME280;23188;51.188;16.374;2023-02-17T11:27:28;100187.50;;;11.56;96.83
37304;BME280;23188;51.188;16.374;2023-02-17T11:31:30;100172.56;;;11.54;96.16
37304;BME280;23188;51.188;16.374;2023-02-17T11:39:42;100151.16;;;11.57;96.31
37304;BME280;23188;51.188;16.374;2023-02-17T11:43:57;100138.67;;;11.66;96.37
37304;BME280;23188;51.188;16.374;2023-02-17T11:48:11;100122.13;;;11.70;94.85
37304;BME280;23188;51.188;16.374;2023-02-17T11:52:28;100118.29;;;11.71;94.69
37304;BME280;23188;51.188;16.374;2023-02-17T11:56:38;100112.26;;;11.72;94.39
37304;BME280;23188;51.188;16.374;2023-02-17T12:13:38;100067.31;;;11.80;95.20
37304;BME280;23188;51.188;16.374;2023-02-17T12:26:37;100052.66;;;11.96;94.81
37304;BME280;23188;51.188;16.374;2023-02-17T12:31:07;100044.13;;;12.01;94.38
37304;BME280;23188;51.188;16.374;2023-02-17T12:35:18;100029.31;;;12.05;94.41
37304;BME280;23188;51.188;16.374;2023-02-17T12:39:33;100021.92;;;12.18;95.28
37304;BME280;23188;51.188;16.374;2023-02-17T12:43:48;100012.52;;;12.28;94.11
37304;BME280;23188;51.188;16.374;2023-02-17T12:48:04;100003.31;;;12.35;93.52
37304;BME280;23188;51.188;16.374;2023-02-17T12:52:17;99998.80;;;12.43;92.68
37304;BME280;23188;51.188;16.374;2023-02-17T13:00:47;99994.50;;;12.46;88.59
37304;BME280;23188;51.188;16.374;2023-02-17T13:04:53;99983.44;;;12.44;87.69
37304;BME280;23188;51.188;16.374;2023-02-17T13:09:00;99969.06;;;12.42;86.54
37304;BME280;23188;51.188;16.374;2023-02-17T13:17:05;99960.85;;;12.36;85.76
37304;BME280;23188;51.188;16.374;2023-02-17T13:25:29;99948.91;;;12.25;86.25
37304;BME280;23188;51.188;16.374;2023-02-17T13:29:34;99940.16;;;12.22;86.30
37304;BME280;23188;51.188;16.374;2023-02-17T13:33:42;99935.92;;;12.21;87.93
37304;BME280;23188;51.188;16.374;2023-02-17T13:37:45;99922.36;;;12.08;90.71
37304;BME280;23188;51.188;16.374;2023-02-17T13:41:47;99907.41;;;11.97;90.03
37304;BME280;23188;51.188;16.374;2023-02-17T13:45:58;99893.73;;;11.93;89.83
37304;BME280;23188;51.188;16.374;2023-02-17T13:50:01;99881.99;;;11.95;90.52
37304;BME280;23188;51.188;16.374;2023-02-17T13:54:05;99872.06;;;11.95;91.03
37304;BME280;23188;51.188;16.374;2023-02-17T13:58:09;99865.33;;;11.99;90.78
37304;BME280;23188;51.188;16.374;2023-02-17T14:02:18;99854.89;;;12.06;91.04
37304;BME280;23188;51.188;16.374;2023-02-17T14:06:36;99846.98;;;12.11;90.86
37304;BME280;23188;51.188;16.374;2023-02-17T14:10:40;99845.84;;;12.12;91.49
37304;BME280;23188;51.188;16.374;2023-02-17T14:14:42;99845.63;;;12.18;91.74
37304;BME280;23188;51.188;16.374;2023-02-17T14:18:44;99836.86;;;12.25;91.76
37304;BME280;23188;51.188;16.374;2023-02-17T14:22:46;99839.23;;;12.27;92.01
37304;BME280;23188;51.188;16.374;2023-02-17T14:27:05;99837.86;;;12.30;92.22
37304;BME280;23188;51.188;16.374;2023-02-17T14:31:10;99830.84;;;12.31;92.46
37304;BME280;23188;51.188;16.374;2023-02-17T14:39:15;99803.27;;;12.38;92.42
37304;BME280;23188;51.188;16.374;2023-02-17T14:43:16;99800.16;;;12.49;92.72
37304;BME280;23188;51.188;16.374;2023-02-17T14:47:18;99793.21;;;12.54;93.00
37304;BME280;23188;51.188;16.374;2023-02-17T14:51:23;99785.60;;;12.70;93.15
37304;BME280;23188;51.188;16.374;2023-02-17T14:59:30;99765.05;;;12.93;93.65
37304;BME280;23188;51.188;16.374;2023-02-17T15:03:32;99750.55;;;13.05;93.69
37304;BME280;23188;51.188;16.374;2023-02-17T15:07:34;99742.24;;;13.18;93.27
37304;BME280;23188;51.188;16.374;2023-02-17T15:11:37;99723.56;;;13.28;93.14
37304;BME280;23188;51.188;16.374;2023-02-17T15:15:40;99711.09;;;13.30;93.53
37304;BME280;23188;51.188;16.374;2023-02-17T15:19:46;99697.89;;;13.40;92.73
37304;BME280;23188;51.188;16.374;2023-02-17T15:23:50;99693.83;;;13.50;92.20
37304;BME280;23188;51.188;16.374;2023-02-17T15:27:52;99695.30;;;13.60;91.73
37304;BME280;23188;51.188;16.374;2023-02-17T15:31:55;99688.81;;;13.64;91.10
37304;BME280;23188;51.188;16.374;2023-02-17T15:35:57;99684.78;;;13.69;90.58
37304;BME280;23188;51.188;16.374;2023-02-17T15:39:59;99692.04;;;13.78;90.28
37304;BME280;23188;51.188;16.374;2023-02-17T15:44:02;99688.48;;;13.81;89.56
37304;BME280;23188;51.188;16.374;2023-02-17T15:48:11;99688.89;;;13.86;89.14
37304;BME280;23188;51.188;16.374;2023-02-17T15:52:14;99687.26;;;13.86;88.61
37304;BME280;23188;51.188;16.374;2023-02-17T15:56:20;99685.29;;;13.86;88.40
37304;BME280;23188;51.188;16.374;2023-02-17T16:00:25;99689.12;;;13.83;87.79
37304;BME280;23188;51.188;16.374;2023-02-17T16:04:27;99689.73;;;13.86;86.66
37304;BME280;23188;51.188;16.374;2023-02-17T16:08:29;99680.67;;;13.89;86.29
37304;BME280;23188;51.188;16.374;2023-02-17T16:12:31;99687.79;;;13.84;86.12
37304;BME280;23188;51.188;16.374;2023-02-17T16:16:33;99691.91;;;13.77;86.45
37304;BME280;23188;51.188;16.374;2023-02-17T16:20:36;99685.86;;;13.72;85.87
37304;BME280;23188;51.188;16.374;2023-02-17T16:24:38;99680.31;;;13.72;85.75
37304;BME280;23188;51.188;16.374;2023-02-17T16:28:39;99686.38;;;13.65;85.66
37304;BME280;23188;51.188;16.374;2023-02-17T16:32:41;99704.56;;;13.67;85.59
37304;BME280;23188;51.188;16.374;2023-02-17T16:36:43;99698.61;;;13.67;85.28
37304;BME280;23188;51.188;16.374;2023-02-17T16:40:47;99703.30;;;13.70;84.56
37304;BME280;23188;51.188;16.374;2023-02-17T16:44:50;99703.45;;;13.76;84.38
37304;BME280;23188;51.188;16.374;2023-02-17T16:48:52;99705.88;;;13.71;84.51
37304;BME280;23188;51.188;16.374;2023-02-17T16:52:57;99693.16;;;13.70;84.26
37304;BME280;23188;51.188;16.374;2023-02-17T16:57:00;99691.44;;;13.70;84.52
37304;BME280;23188;51.188;16.374;2023-02-17T17:01:03;99691.52;;;13.64;85.33
37304;BME280;23188;51.188;16.374;2023-02-17T17:05:05;99691.02;;;13.62;85.34
37304;BME280;23188;51.188;16.374;2023-02-17T17:09:14;99698.05;;;13.61;85.59
37304;BME280;23188;51.188;16.374;2023-02-17T17:13:17;99705.09;;;13.58;85.63
37304;BME280;23188;51.188;16.374;2023-02-17T17:17:19;99693.89;;;13.56;85.69
37304;BME280;23188;51.188;16.374;2023-02-17T17:21:21;99698.11;;;13.55;86.02
37304;BME280;23188;51.188;16.374;2023-02-17T17:25:23;99690.99;;;13.53;86.05
37304;BME280;23188;51.188;16.374;2023-02-17T17:29:24;99681.40;;;13.49;86.47
37304;BME280;23188;51.188;16.374;2023-02-17T17:33:26;99673.35;;;13.50;86.63
37304;BME280;23188;51.188;16.374;2023-02-17T17:37:28;99670.64;;;13.50;86.35
37304;BME280;23188;51.188;16.374;2023-02-17T17:41:30;99653.65;;;13.52;86.31
37304;BME280;23188;51.188;16.374;2023-02-17T17:45:33;99671.08;;;13.52;86.83
37304;BME280;23188;51.188;16.374;2023-02-17T17:49:35;99676.83;;;13.52;86.78
37304;BME280;23188;51.188;16.374;2023-02-17T17:53:36;99685.81;;;13.50;87.13
37304;BME280;23188;51.188;16.374;2023-02-17T17:57:39;99686.95;;;13.49;87.42
37304;BME280;23188;51.188;16.374;2023-02-17T18:01:41;99694.80;;;13.54;87.01
37304;BME280;23188;51.188;16.374;2023-02-17T18:05:46;99681.59;;;13.53;86.78
37304;BME280;23188;51.188;16.374;2023-02-17T18:09:49;99681.72;;;13.62;86.96
37304;BME280;23188;51.188;16.374;2023-02-17T18:13:52;99682.08;;;13.60;87.00
37304;BME280;23188;51.188;16.374;2023-02-17T18:17:55;99676.38;;;13.61;87.09
37304;BME280;23188;51.188;16.374;2023-02-17T18:21:57;99663.08;;;13.63;87.05
37304;BME280;23188;51.188;16.374;2023-02-17T18:25:59;99659.48;;;13.62;87.44
37304;BME280;23188;51.188;16.374;2023-02-17T18:30:02;99645.94;;;13.58;87.72
37304;BME280;23188;51.188;16.374;2023-02-17T18:34:04;99654.09;;;13.61;87.62
37304;BME280;23188;51.188;16.374;2023-02-17T18:38:06;99655.10;;;13.63;87.71
37304;BME280;23188;51.188;16.374;2023-02-17T18:42:07;99645.17;;;13.61;87.98
37304;BME280;23188;51.188;16.374;2023-02-17T18:46:10;99661.88;;;13.60;88.32
37304;BME280;23188;51.188;16.374;2023-02-17T18:50:14;99662.34;;;13.58;88.43
37304;BME280;23188;51.188;16.374;2023-02-17T18:54:16;99670.29;;;13.57;89.04
37304;BME280;23188;51.188;16.374;2023-02-17T18:58:17;99673.81;;;13.56;88.89
37304;BME280;23188;51.188;16.374;2023-02-17T19:02:19;99691.20;;;13.58;89.47
37304;BME280;23188;51.188;16.374;2023-02-17T19:06:24;99707.56;;;13.53;90.03
37304;BME280;23188;51.188;16.374;2023-02-17T19:10:26;99709.84;;;13.47;90.34
37304;BME280;23188;51.188;16.374;2023-02-17T19:14:32;99715.38;;;13.41;91.90
37304;BME280;23188;51.188;16.374;2023-02-17T19:18:33;99743.92;;;13.28;94.90
37304;BME280;23188;51.188;16.374;2023-02-17T19:22:36;99770.86;;;12.99;99.59
37304;BME280;23188;51.188;16.374;2023-02-17T19:26:38;99783.67;;;12.66;100.00
37304;BME280;23188;51.188;16.374;2023-02-17T19:30:40;99770.90;;;12.31;100.00
37304;BME280;23188;51.188;16.374;2023-02-17T19:34:42;99759.27;;;12.08;100.00
37304;BME280;23188;51.188;16.374;2023-02-17T19:38:44;99754.89;;;12.00;100.00
37304;BME280;23188;51.188;16.374;2023-02-17T19:42:47;99757.46;;;11.97;100.00
37304;BME280;23188;51.188;16.374;2023-02-17T19:46:49;99741.95;;;12.05;100.00
37304;BME280;23188;51.188;16.374;2023-02-17T19:50:57;99755.38;;;12.08;100.00
37304;BME280;23188;51.188;16.374;2023-02-17T19:55:01;99757.73;;;12.02;100.00
37304;BME280;23188;51.188;16.374;2023-02-17T19:59:03;99781.87;;;11.96;100.00
37304;BME280;23188;51.188;16.374;2023-02-17T20:03:05;99764.54;;;11.99;100.00
37304;BME280;23188;51.188;16.374;2023-02-17T20:07:08;99779.50;;;12.08;100.00
37304;BME280;23188;51.188;16.374;2023-02-17T20:11:18;99756.41;;;12.17;100.00
37304;BME280;23188;51.188;16.374;2023-02-17T20:15:20;99753.77;;;12.19;100.00
37304;BME280;23188;51.188;16.374;2023-02-17T20:19:22;99748.68;;;12.20;100.00
37304;BME280;23188;51.188;16.374;2023-02-17T20:23:24;99759.57;;;12.14;100.00
37304;BME280;23188;51.188;16.374;2023-02-17T20:27:26;99764.69;;;12.20;100.00
37304;BME280;23188;51.188;16.374;2023-02-17T20:31:28;99761.89;;;12.25;100.00
37304;BME280;23188;51.188;16.374;2023-02-17T20:35:30;99762.67;;;12.32;100.00
37304;BME280;23188;51.188;16.374;2023-02-17T20:39:36;99771.11;;;12.29;100.00
37304;BME280;23188;51.188;16.374;2023-02-17T20:43:39;99779.11;;;12.26;100.00
37304;BME280;23188;51.188;16.374;2023-02-17T20:47:41;99771.16;;;12.23;100.00
37304;BME280;23188;51.188;16.374;2023-02-17T20:51:43;99770.95;;;12.14;100.00
37304;BME280;23188;51.188;16.374;2023-02-17T20:55:45;99781.70;;;12.01;99.44
37304;BME280;23188;51.188;16.374;2023-02-17T20:59:47;99775.90;;;12.05;98.21
37304;BME280;23188;51.188;16.374;2023-02-17T21:03:49;99770.16;;;11.98;98.47
37304;BME280;23188;51.188;16.374;2023-02-17T21:07:52;99781.05;;;11.93;98.27
37304;BME280;23188;51.188;16.374;2023-02-17T21:11:53;99791.02;;;11.88;98.60
37304;BME280;23188;51.188;16.374;2023-02-17T21:15:55;99788.80;;;11.81;98.69
37304;BME280;23188;51.188;16.374;2023-02-17T21:19:57;99790.82;;;11.88;97.55
37304;BME280;23188;51.188;16.374;2023-02-17T21:23:59;99799.59;;;11.97;96.83
37304;BME280;23188;51.188;16.374;2023-02-17T21:28:00;99806.73;;;11.98;96.72
37304;BME280;23188;51.188;16.374;2023-02-17T21:32:05;99822.96;;;11.96;96.66
37304;BME280;23188;51.188;16.374;2023-02-17T21:36:09;99818.48;;;11.98;96.76
37304;BME280;23188;51.188;16.374;2023-02-17T21:40:12;99835.27;;;11.93;96.53
37304;BME280;23188;51.188;16.374;2023-02-17T21:44:14;99831.52;;;11.93;96.71
37304;BME280;23188;51.188;16.374;2023-02-17T21:48:34;99842.89;;;11.99;96.47
37304;BME280;23188;51.188;16.374;2023-02-17T21:52:35;99856.84;;;12.06;96.78
37304;BME280;23188;51.188;16.374;2023-02-17T21:56:37;99868.14;;;12.11;96.91
37304;BME280;23188;51.188;16.374;2023-02-17T22:00:39;99883.67;;;12.18;96.83
37304;BME280;23188;51.188;16.374;2023-02-17T22:04:41;99902.13;;;12.04;99.75
37304;BME280;23188;51.188;16.374;2023-02-17T22:18:13;99929.40;;;10.75;100.00
37304;BME280;23188;51.188;16.374;2023-02-17T22:22:17;99927.96;;;10.55;100.00
37304;BME280;23188;51.188;16.374;2023-02-17T22:26:30;99951.67;;;10.39;100.00
37304;BME280;23188;51.188;16.374;2023-02-17T22:40:29;99933.11;;;10.01;100.00
37304;BME280;23188;51.188;16.374;2023-02-17T23:16:46;99965.57;;;9.85;96.16
37304;BME280;23188;51.188;16.374;2023-02-17T23:20:50;99964.94;;;9.76;95.14
37304;BME280;23188;51.188;16.374;2023-02-17T23:24:55;99968.86;;;9.54;97.20
37304;BME280;23188;51.188;16.374;2023-02-17T23:29:00;99971.73;;;9.38;99.79
37304;BME280;23188;51.188;16.374;2023-02-17T23:33:02;99958.33;;;9.35;98.97